Shintown, Pennsylvania
Current Conditions -  °F | °C
As of 8:35 PM on Friday 19 Dec 2014 (Local Time) from KN38 Reporting Station
Overcast Overcast  
Wind Chill: 15°   Ceiling: 2100
Heat Index: 25°   Visibility: 10mi
Dew Point: 19°   Wind: 9mph
Humidity: 80%   Direction: 350°N
Pressure: 30.16"   Gusts: 15mph
Location:  41.3916°N, 77.7796°W
Report Text: KN38 200135Z AUTO 35008G13KT 10SM BKN021 OVC029 M04/M07 A3016 RMK AO2
Loading
Personal Weather Stations






























Interactive Weather Map New forecast layout! Learn more

10-Day Weather Forecast

Advertisements
Track Severe Weather on mobile